Time;durP1;ratioP1;P1;durP2;ratioP2;P2;SDS_P1;SDS_P2;PMS_P1;PMS_P2;Temp;Humidity;BMP_temperature;BMP_pressure;BME280_temperature;BME280_humidity;BME280_pressure;Samples;Min_cycle;Max_cycle;Signal;HPM_P1;HPM_P2
2023/03/09 00:01:16;;;;;;;;;;;9.10;99.90;;;;;;5096631;28;20399;-79
2023/03/09 00:03:44;;;;;;;;;;;9.10;99.90;;;;;;5098396;28;19936;-77
2023/03/09 00:06:11;;;;;;;;;;;9.20;99.90;;;;;;5097190;28;19935;-78
2023/03/09 00:08:37;;;;;;;;;;;9.20;99.90;;;;;;5095527;28;19928;-78
2023/03/09 00:11:04;;;;;;;;;;;9.20;99.90;;;;;;5094859;28;20459;-79
2023/03/09 00:13:31;;;;;;;;;;;9.20;99.90;;;;;;5095518;28;20374;-78
2023/03/09 00:15:57;;;;;;;;;;;9.20;99.90;;;;;;5098621;28;20457;-78
2023/03/09 00:18:24;;;;;;;;;;;9.30;99.90;;;;;;5098975;28;20403;-78
2023/03/09 00:20:52;;;;;;;;;;;9.20;99.90;;;;;;5097797;28;19932;-78
2023/03/09 00:23:19;;;;;;;;;;;9.20;99.90;;;;;;5105618;28;19963;-77
2023/03/09 00:25:45;;;;;;;;;;;9.20;99.90;;;;;;5104246;28;19961;-78
2023/03/09 00:28:12;;;;;;;;;;;9.20;99.90;;;;;;5101341;28;19950;-78
2023/03/09 00:30:38;;;;;;;;;;;9.20;99.90;;;;;;5099337;28;19928;-78
2023/03/09 00:33:05;;;;;;;;;;;9.20;99.90;;;;;;5103834;28;19924;-78
2023/03/09 00:35:35;;;;;;;;;;;9.20;99.90;;;;;;5097071;28;20494;-78
2023/03/09 00:38:03;;;;;;;;;;;9.20;99.90;;;;;;5108350;28;19931;-78
2023/03/09 00:40:30;;;;;;;;;;;9.20;99.90;;;;;;5102251;28;19928;-78
2023/03/09 00:42:56;;;;;;;;;;;9.20;99.90;;;;;;5100648;28;20264;-79
2023/03/09 00:45:23;;;;;;;;;;;9.20;99.90;;;;;;5105233;28;19928;-79
2023/03/09 00:47:50;;;;;;;;;;;9.20;99.90;;;;;;5104208;28;19963;-78
2023/03/09 00:50:16;;;;;;;;;;;9.20;99.90;;;;;;5102937;28;19928;-79
2023/03/09 00:52:43;;;;;;;;;;;9.10;99.90;;;;;;5102017;28;20455;-78
2023/03/09 00:55:11;;;;;;;;;;;9.10;99.90;;;;;;5104275;28;19965;-78
2023/03/09 00:57:38;;;;;;;;;;;9.20;99.90;;;;;;5111978;28;19981;-78
2023/03/09 01:00:06;;;;;;;;;;;9.20;99.90;;;;;;5108995;28;19927;-78
2023/03/09 01:02:33;;;;;;;;;;;9.20;99.90;;;;;;5115098;28;19924;-77
2023/03/09 01:04:59;;;;;;;;;;;9.10;99.90;;;;;;5120210;28;19924;-78
2023/03/09 01:07:28;;;;;;;;;;;9.20;99.90;;;;;;5119249;28;19928;-78
2023/03/09 01:09:55;;;;;;;;;;;9.10;99.90;;;;;;5121582;28;19935;-79
2023/03/09 01:12:23;;;;;;;;;;;9.10;99.90;;;;;;5119285;28;19950;-78
2023/03/09 01:14:51;;;;;;;;;;;9.10;99.90;;;;;;5123546;28;19935;-78
2023/03/09 01:17:17;;;;;;;;;;;9.10;99.90;;;;;;5118761;27;19932;-77
2023/03/09 01:19:44;;;;;;;;;;;9.10;99.90;;;;;;5113597;27;19936;-77
2023/03/09 01:22:10;;;;;;;;;;;9.10;99.90;;;;;;5116165;27;19932;-78
2023/03/09 01:24:37;;;;;;;;;;;9.10;99.90;;;;;;5120551;28;19935;-77
2023/03/09 01:27:03;;;;;;;;;;;9.10;99.90;;;;;;5107586;27;20525;-80
2023/03/09 01:29:31;;;;;;;;;;;9.10;99.90;;;;;;5093844;28;20385;-80
2023/03/09 01:31:58;;;;;;;;;;;9.10;99.90;;;;;;5098047;27;20410;-78
2023/03/09 01:34:24;;;;;;;;;;;9.20;99.90;;;;;;5110570;27;19927;-77
2023/03/09 01:36:51;;;;;;;;;;;9.10;99.90;;;;;;5106671;27;19932;-75
2023/03/09 01:39:17;;;;;;;;;;;9.10;99.90;;;;;;5090885;28;19932;-77
2023/03/09 01:41:44;;;;;;;;;;;9.10;99.90;;;;;;5102688;27;19944;-77
2023/03/09 01:44:11;;;;;;;;;;;9.20;99.90;;;;;;5098947;27;19939;-78
2023/03/09 01:46:50;;;;;;;;;;;9.20;99.90;;;;;;5100164;28;19927;-77
2023/03/09 01:49:20;;;;;;;;;;;9.20;99.90;;;;;;5101759;27;20485;-78
2023/03/09 01:51:49;;;;;;;;;;;9.10;99.90;;;;;;5092316;28;20643;-78
2023/03/09 01:54:18;;;;;;;;;;;9.20;99.90;;;;;;5096715;27;19927;-77
2023/03/09 01:56:45;;;;;;;;;;;9.20;99.90;;;;;;5096222;27;19928;-77
2023/03/09 01:59:12;;;;;;;;;;;9.10;99.90;;;;;;5093711;27;19965;-78
2023/03/09 02:01:40;;;;;;;;;;;9.20;99.90;;;;;;5096385;28;19973;-79
2023/03/09 02:04:13;;;;;;;;;;;9.20;99.90;;;;;;5099595;27;21466;-79
2023/03/09 02:06:40;;;;;;;;;;;9.10;99.90;;;;;;5097818;28;20000;-79
2023/03/09 02:09:09;;;;;;;;;;;9.10;99.90;;;;;;5100081;28;19955;-79
2023/03/09 02:11:36;;;;;;;;;;;9.20;99.90;;;;;;5097181;28;19928;-78
2023/03/09 02:14:03;;;;;;;;;;;9.20;99.90;;;;;;5100350;28;19928;-79
2023/03/09 02:16:29;;;;;;;;;;;9.20;99.90;;;;;;5097320;28;19974;-77
2023/03/09 02:18:56;;;;;;;;;;;9.20;99.90;;;;;;5103665;27;19989;-78
2023/03/09 02:21:29;;;;;;;;;;;9.20;99.90;;;;;;5097388;28;19928;-79
2023/03/09 02:23:59;;;;;;;;;;;9.20;99.90;;;;;;5100298;27;19935;-78
2023/03/09 02:26:28;;;;;;;;;;;9.20;99.90;;;;;;5101561;28;19931;-78
2023/03/09 02:28:56;;;;;;;;;;;9.20;99.90;;;;;;5097547;28;19969;-78
2023/03/09 02:31:23;;;;;;;;;;;9.20;99.90;;;;;;5093282;28;19939;-79
2023/03/09 02:33:49;;;;;;;;;;;9.20;99.90;;;;;;5105436;27;19927;-78
2023/03/09 02:36:16;;;;;;;;;;;9.20;99.90;;;;;;5106890;27;20387;-80
2023/03/09 02:38:42;;;;;;;;;;;9.20;99.90;;;;;;5097799;28;20046;-78
2023/03/09 02:41:10;;;;;;;;;;;9.20;99.90;;;;;;5107988;28;19932;-79
2023/03/09 02:43:38;;;;;;;;;;;9.20;99.90;;;;;;5109665;28;19977;-79
2023/03/09 02:46:06;;;;;;;;;;;9.20;99.90;;;;;;5095940;28;19947;-80
2023/03/09 02:48:33;;;;;;;;;;;9.20;99.90;;;;;;5098983;28;19928;-80
2023/03/09 02:50:59;;;;;;;;;;;9.20;99.90;;;;;;5098325;27;20443;-79
2023/03/09 02:53:26;;;;;;;;;;;9.20;99.90;;;;;;5097390;27;19928;-80
2023/03/09 02:55:52;;;;;;;;;;;9.20;99.90;;;;;;5098203;28;19985;-79
2023/03/09 02:58:19;;;;;;;;;;;9.20;99.90;;;;;;5103685;28;20394;-79
2023/03/09 03:00:45;;;;;;;;;;;9.10;99.90;;;;;;5101965;27;19924;-79
2023/03/09 03:03:13;;;;;;;;;;;9.20;99.90;;;;;;5097417;28;19932;-80
2023/03/09 03:05:40;;;;;;;;;;;9.20;99.90;;;;;;5097101;27;20626;-78
2023/03/09 03:08:06;;;;;;;;;;;9.20;99.90;;;;;;5097082;27;19928;-79
2023/03/09 03:10:33;;;;;;;;;;;9.10;99.90;;;;;;5091646;28;19928;-79
2023/03/09 03:12:59;;;;;;;;;;;9.10;99.90;;;;;;5096868;27;19932;-79
2023/03/09 03:15:26;;;;;;;;;;;9.10;99.90;;;;;;5094740;28;20355;-79
2023/03/09 03:17:52;;;;;;;;;;;9.10;99.90;;;;;;5099661;28;19939;-79
2023/03/09 03:20:20;;;;;;;;;;;9.10;99.90;;;;;;5094250;28;19932;-79
2023/03/09 03:22:47;;;;;;;;;;;9.10;99.90;;;;;;5099762;28;19927;-79
2023/03/09 03:25:13;;;;;;;;;;;9.10;99.90;;;;;;5099368;28;19928;-78
2023/03/09 03:27:40;;;;;;;;;;;9.10;99.90;;;;;;5095870;28;19928;-78
2023/03/09 03:30:07;;;;;;;;;;;9.10;99.90;;;;;;5100207;28;20319;-78
2023/03/09 03:32:33;;;;;;;;;;;9.10;99.90;;;;;;5095710;28;19941;-80
2023/03/09 03:35:00;;;;;;;;;;;9.10;99.90;;;;;;5095284;28;19973;-78
2023/03/09 03:37:29;;;;;;;;;;;9.10;99.90;;;;;;5097084;28;19928;-79
2023/03/09 03:39:56;;;;;;;;;;;9.00;99.90;;;;;;5096771;28;19941;-79
2023/03/09 03:42:22;;;;;;;;;;;9.00;99.90;;;;;;5098641;28;19996;-80
2023/03/09 03:44:49;;;;;;;;;;;9.00;99.90;;;;;;5098767;28;19931;-79
2023/03/09 03:47:15;;;;;;;;;;;9.00;99.90;;;;;;5096743;28;19927;-79
2023/03/09 03:49:42;;;;;;;;;;;9.00;99.90;;;;;;5097749;28;19972;-79
2023/03/09 03:52:10;;;;;;;;;;;9.00;99.90;;;;;;5102004;28;19928;-79
2023/03/09 03:54:38;;;;;;;;;;;9.00;99.90;;;;;;5097688;28;20584;-79
2023/03/09 03:57:05;;;;;;;;;;;9.00;99.90;;;;;;5099965;28;19928;-79
2023/03/09 03:59:32;;;;;;;;;;;9.00;99.90;;;;;;5098973;28;20332;-79
2023/03/09 04:01:59;;;;;;;;;;;9.00;99.90;;;;;;5094877;28;20154;-79
2023/03/09 04:04:25;;;;;;;;;;;9.00;99.90;;;;;;5095831;28;19928;-77
2023/03/09 04:06:52;;;;;;;;;;;9.00;99.90;;;;;;5096624;28;19932;-77
2023/03/09 04:09:18;;;;;;;;;;;9.00;99.90;;;;;;5093968;28;19935;-77
2023/03/09 04:11:46;;;;;;;;;;;9.00;99.90;;;;;;5101436;28;20001;-78
2023/03/09 04:14:13;;;;;;;;;;;9.00;99.90;;;;;;5101386;28;19951;-78
2023/03/09 04:16:39;;;;;;;;;;;9.00;99.90;;;;;;5097243;28;20369;-77
2023/03/09 04:19:06;;;;;;;;;;;8.90;99.90;;;;;;5102045;28;20385;-78
2023/03/09 04:21:32;;;;;;;;;;;8.90;99.90;;;;;;5099423;28;20405;-78
2023/03/09 04:23:59;;;;;;;;;;;8.90;99.90;;;;;;5098804;28;19931;-77
2023/03/09 04:26:25;;;;;;;;;;;8.90;99.90;;;;;;5094073;28;19928;-77
2023/03/09 04:28:53;;;;;;;;;;;8.90;99.90;;;;;;5098534;28;20003;-78
2023/03/09 04:31:20;;;;;;;;;;;8.90;99.90;;;;;;5089775;27;19939;-77
2023/03/09 04:33:46;;;;;;;;;;;8.90;99.90;;;;;;5096497;28;19935;-77
2023/03/09 04:36:13;;;;;;;;;;;8.90;99.90;;;;;;5097714;28;19928;-77
2023/03/09 04:38:40;;;;;;;;;;;8.90;99.90;;;;;;5100897;28;19928;-78
2023/03/09 04:41:06;;;;;;;;;;;8.90;99.90;;;;;;5099433;28;19928;-78
2023/03/09 04:43:34;;;;;;;;;;;8.90;99.90;;;;;;5100933;28;19992;-78
2023/03/09 04:46:02;;;;;;;;;;;8.90;99.90;;;;;;5100595;27;19935;-77
2023/03/09 04:48:28;;;;;;;;;;;8.90;99.90;;;;;;5100737;27;20355;-78
2023/03/09 04:50:55;;;;;;;;;;;8.90;99.90;;;;;;5097764;27;19941;-78
2023/03/09 04:53:21;;;;;;;;;;;8.90;99.90;;;;;;5104148;27;19931;-78
2023/03/09 04:55:48;;;;;;;;;;;8.90;99.90;;;;;;5104011;27;19988;-77
2023/03/09 04:58:14;;;;;;;;;;;8.80;99.90;;;;;;5103757;27;19924;-77
2023/03/09 05:00:41;;;;;;;;;;;8.80;99.90;;;;;;5093285;27;19932;-77
2023/03/09 05:03:09;;;;;;;;;;;8.90;99.90;;;;;;5073219;28;19947;-76
2023/03/09 05:05:35;;;;;;;;;;;8.90;99.90;;;;;;5083139;28;19932;-78
2023/03/09 05:08:02;;;;;;;;;;;8.80;99.90;;;;;;5083270;28;20402;-77
2023/03/09 05:10:28;;;;;;;;;;;8.80;99.90;;;;;;5082080;28;19982;-76
2023/03/09 05:12:55;;;;;;;;;;;8.80;99.90;;;;;;5078696;28;19932;-77
2023/03/09 05:15:21;;;;;;;;;;;8.80;99.90;;;;;;5082840;28;20001;-77
2023/03/09 05:17:48;;;;;;;;;;;8.80;99.90;;;;;;5102191;28;19980;-78
2023/03/09 05:20:16;;;;;;;;;;;8.80;99.90;;;;;;5096769;28;19931;-77
2023/03/09 05:22:43;;;;;;;;;;;8.80;99.90;;;;;;5094500;28;20023;-77
2023/03/09 05:25:10;;;;;;;;;;;8.80;99.90;;;;;;5099721;28;19935;-78
2023/03/09 05:27:36;;;;;;;;;;;8.80;99.90;;;;;;5098612;27;20350;-77
2023/03/09 05:30:03;;;;;;;;;;;8.80;99.90;;;;;;5097115;27;19943;-76
2023/03/09 05:32:30;;;;;;;;;;;8.80;99.90;;;;;;5092677;28;19932;-77
2023/03/09 05:34:57;;;;;;;;;;;8.80;99.90;;;;;;5100176;28;20049;-77
2023/03/09 05:37:25;;;;;;;;;;;8.80;99.90;;;;;;5092461;28;19928;-77
2023/03/09 05:39:51;;;;;;;;;;;8.80;99.90;;;;;;5090556;28;19928;-76
2023/03/09 05:42:18;;;;;;;;;;;8.80;99.90;;;;;;5092531;28;19928;-75
2023/03/09 05:44:44;;;;;;;;;;;8.80;99.90;;;;;;5097612;28;19928;-77
2023/03/09 05:47:11;;;;;;;;;;;8.80;99.90;;;;;;5096216;28;19927;-77
2023/03/09 05:49:37;;;;;;;;;;;8.80;99.90;;;;;;5090472;27;19928;-77
2023/03/09 05:52:04;;;;;;;;;;;8.80;99.90;;;;;;5096504;28;20355;-77
2023/03/09 05:54:32;;;;;;;;;;;8.80;99.90;;;;;;5093411;28;19935;-77
2023/03/09 05:56:59;;;;;;;;;;;8.80;99.90;;;;;;5101538;28;19928;-78
2023/03/09 05:59:26;;;;;;;;;;;8.80;99.90;;;;;;5091546;28;19939;-77
2023/03/09 06:01:52;;;;;;;;;;;8.80;99.90;;;;;;5093041;27;20063;-77
2023/03/09 06:04:19;;;;;;;;;;;8.80;99.90;;;;;;5099957;28;20371;-78
2023/03/09 06:06:45;;;;;;;;;;;8.80;99.90;;;;;;5094689;27;19927;-77
2023/03/09 06:09:12;;;;;;;;;;;8.80;99.90;;;;;;5104691;27;19928;-77
2023/03/09 06:11:40;;;;;;;;;;;8.80;99.90;;;;;;5101996;28;19981;-77
2023/03/09 06:14:06;;;;;;;;;;;8.80;99.90;;;;;;5100030;28;19940;-77
2023/03/09 06:16:33;;;;;;;;;;;8.80;99.90;;;;;;5094416;27;19975;-77
2023/03/09 06:18:59;;;;;;;;;;;8.80;99.90;;;;;;5092821;27;19931;-77
2023/03/09 06:21:26;;;;;;;;;;;8.80;99.90;;;;;;5097332;28;19940;-78
2023/03/09 06:23:53;;;;;;;;;;;8.80;99.90;;;;;;5098797;27;19936;-77
2023/03/09 06:26:20;;;;;;;;;;;8.80;99.90;;;;;;5099531;28;20660;-77
2023/03/09 06:28:48;;;;;;;;;;;8.90;99.90;;;;;;5093665;28;19927;-77
2023/03/09 06:31:15;;;;;;;;;;;8.90;99.90;;;;;;5096761;27;20435;-76
2023/03/09 06:33:43;;;;;;;;;;;8.90;99.90;;;;;;5095782;28;19939;-77
2023/03/09 06:36:10;;;;;;;;;;;8.90;99.90;;;;;;5095714;28;20226;-76
2023/03/09 06:38:36;;;;;;;;;;;8.90;99.90;;;;;;5095077;28;20072;-77
2023/03/09 06:41:03;;;;;;;;;;;8.90;99.90;;;;;;5094540;28;20288;-76
2023/03/09 06:43:30;;;;;;;;;;;8.90;99.90;;;;;;5095434;28;19928;-76
2023/03/09 06:45:58;;;;;;;;;;;8.90;99.90;;;;;;5093124;28;20360;-77
2023/03/09 06:48:24;;;;;;;;;;;8.90;99.90;;;;;;5094572;27;19962;-77
2023/03/09 06:50:51;;;;;;;;;;;8.90;99.90;;;;;;5092540;28;19931;-77
2023/03/09 06:53:17;;;;;;;;;;;8.90;99.90;;;;;;5089885;28;20409;-76
2023/03/09 06:55:44;;;;;;;;;;;8.90;99.90;;;;;;5094152;28;19969;-77
2023/03/09 06:58:11;;;;;;;;;;;8.90;99.90;;;;;;5088798;28;20437;-77
2023/03/09 07:00:40;;;;;;;;;;;8.90;99.90;;;;;;5093245;28;19932;-77
2023/03/09 07:03:13;;;;;;;;;;;8.90;99.90;;;;;;5091850;28;19971;-76
2023/03/09 07:05:40;;;;;;;;;;;8.90;99.90;;;;;;5089833;28;19932;-77
2023/03/09 07:08:07;;;;;;;;;;;8.90;99.90;;;;;;5088002;28;20402;-77
2023/03/09 07:10:33;;;;;;;;;;;8.90;99.90;;;;;;5086112;28;19928;-75
2023/03/09 07:13:00;;;;;;;;;;;8.90;99.90;;;;;;5094581;28;19935;-77
2023/03/09 07:15:26;;;;;;;;;;;8.90;99.90;;;;;;5093985;28;21333;-77
2023/03/09 07:17:53;;;;;;;;;;;8.90;99.90;;;;;;5093935;28;20393;-77
2023/03/09 07:20:23;;;;;;;;;;;8.90;99.90;;;;;;5090921;28;19936;-77
2023/03/09 07:22:50;;;;;;;;;;;8.90;99.90;;;;;;5090639;28;20313;-76
2023/03/09 07:25:17;;;;;;;;;;;8.90;99.90;;;;;;5091223;28;19981;-76
2023/03/09 07:27:43;;;;;;;;;;;8.90;99.90;;;;;;5096105;28;19932;-76
2023/03/09 07:30:10;;;;;;;;;;;8.90;99.90;;;;;;5094105;27;20399;-79
2023/03/09 07:32:37;;;;;;;;;;;8.90;99.90;;;;;;5100786;27;20626;-77
2023/03/09 07:35:04;;;;;;;;;;;8.90;99.90;;;;;;5090788;28;19954;-76
2023/03/09 07:37:32;;;;;;;;;;;8.90;99.90;;;;;;5087821;28;19979;-77
2023/03/09 07:39:58;;;;;;;;;;;8.90;99.90;;;;;;5086613;28;19958;-76
2023/03/09 07:42:25;;;;;;;;;;;8.90;99.90;;;;;;5089940;28;19950;-76
2023/03/09 07:44:52;;;;;;;;;;;8.90;99.90;;;;;;5095501;28;20382;-76
2023/03/09 07:47:18;;;;;;;;;;;8.90;99.90;;;;;;5096440;28;19931;-76
2023/03/09 07:49:45;;;;;;;;;;;8.90;99.90;;;;;;5093944;28;20702;-75
2023/03/09 07:52:12;;;;;;;;;;;8.90;99.90;;;;;;5097090;28;20046;-76
2023/03/09 07:54:40;;;;;;;;;;;8.90;99.90;;;;;;5090805;28;20019;-76
2023/03/09 07:57:07;;;;;;;;;;;8.90;99.90;;;;;;5092058;28;19928;-76
2023/03/09 07:59:33;;;;;;;;;;;9.00;99.90;;;;;;5091633;28;19985;-76
2023/03/09 08:02:00;;;;;;;;;;;8.90;99.90;;;;;;5087499;28;19993;-77
2023/03/09 08:04:27;;;;;;;;;;;9.00;99.90;;;;;;5091685;28;19950;-76
2023/03/09 08:06:53;;;;;;;;;;;9.00;99.90;;;;;;5087546;28;19934;-77
2023/03/09 08:09:20;;;;;;;;;;;9.00;99.80;;;;;;5089093;28;19928;-76
2023/03/09 08:11:48;;;;;;;;;;;9.10;99.80;;;;;;5091814;28;19989;-76
2023/03/09 08:14:15;;;;;;;;;;;9.00;99.70;;;;;;5090885;28;19935;-76
2023/03/09 08:16:41;;;;;;;;;;;9.00;99.70;;;;;;5085426;28;20314;-77
2023/03/09 08:19:08;;;;;;;;;;;9.10;99.70;;;;;;5090802;28;19928;-77
2023/03/09 08:21:34;;;;;;;;;;;9.00;99.60;;;;;;5085187;28;19928;-76
2023/03/09 08:24:01;;;;;;;;;;;9.10;99.60;;;;;;5090202;28;19927;-76
2023/03/09 08:26:27;;;;;;;;;;;9.10;99.60;;;;;;5087471;28;20013;-77
2023/03/09 08:28:55;;;;;;;;;;;9.10;99.60;;;;;;5087407;28;19931;-76
2023/03/09 08:31:23;;;;;;;;;;;9.10;99.60;;;;;;5087478;28;19973;-76
2023/03/09 08:33:50;;;;;;;;;;;9.10;99.60;;;;;;5087199;28;20599;-76
2023/03/09 08:36:18;;;;;;;;;;;9.10;99.60;;;;;;5094064;28;19928;-77
2023/03/09 08:38:45;;;;;;;;;;;9.10;99.60;;;;;;5090741;28;19938;-78
2023/03/09 08:41:12;;;;;;;;;;;9.10;99.60;;;;;;5091095;28;19932;-76
2023/03/09 08:43:39;;;;;;;;;;;9.20;99.60;;;;;;5088455;28;20390;-77
2023/03/09 08:46:07;;;;;;;;;;;9.20;99.60;;;;;;5090160;28;19942;-76
2023/03/09 08:48:34;;;;;;;;;;;9.20;99.60;;;;;;5089837;28;19935;-76
2023/03/09 08:51:01;;;;;;;;;;;9.20;99.60;;;;;;5089036;28;20492;-77
2023/03/09 08:53:27;;;;;;;;;;;9.20;99.60;;;;;;5089624;28;19927;-76
2023/03/09 08:55:54;;;;;;;;;;;9.20;99.60;;;;;;5086019;28;20515;-76
2023/03/09 08:58:20;;;;;;;;;;;9.20;99.50;;;;;;5088388;28;20017;-77
2023/03/09 09:00:47;;;;;;;;;;;9.20;99.50;;;;;;5087345;28;19935;-76
2023/03/09 09:03:15;;;;;;;;;;;9.30;99.50;;;;;;5081278;28;19931;-77
2023/03/09 09:05:42;;;;;;;;;;;9.30;99.40;;;;;;5080680;28;19989;-77
2023/03/09 09:08:09;;;;;;;;;;;9.30;99.40;;;;;;5076435;28;19928;-76
2023/03/09 09:10:39;;;;;;;;;;;9.30;99.40;;;;;;5079985;28;19963;-77
2023/03/09 09:13:06;;;;;;;;;;;9.30;99.40;;;;;;5084700;28;19932;-76
2023/03/09 09:15:33;;;;;;;;;;;9.30;99.30;;;;;;5085592;28;19924;-77
2023/03/09 09:18:00;;;;;;;;;;;9.30;99.30;;;;;;5087371;28;19939;-76
2023/03/09 09:20:28;;;;;;;;;;;9.30;99.30;;;;;;5091767;28;19928;-76
2023/03/09 09:22:54;;;;;;;;;;;9.30;99.30;;;;;;5087787;28;19940;-76
2023/03/09 09:25:21;;;;;;;;;;;9.30;99.20;;;;;;5085161;28;19932;-76
2023/03/09 09:27:49;;;;;;;;;;;9.30;99.20;;;;;;5091119;28;19940;-77
2023/03/09 09:30:16;;;;;;;;;;;9.30;99.20;;;;;;5090313;27;20307;-76
2023/03/09 09:32:44;;;;;;;;;;;9.40;99.20;;;;;;5091286;28;19981;-76
2023/03/09 09:35:12;;;;;;;;;;;9.40;99.20;;;;;;5088267;28;20606;-76
2023/03/09 09:37:41;;;;;;;;;;;9.40;99.20;;;;;;5091534;28;19928;-76
2023/03/09 09:40:10;;;;;;;;;;;9.40;99.20;;;;;;5089830;28;20005;-76
2023/03/09 09:42:38;;;;;;;;;;;9.40;99.20;;;;;;5092225;28;19939;-75
2023/03/09 09:45:10;;;;;;;;;;;9.40;99.20;;;;;;5097765;27;19963;-76
2023/03/09 09:47:37;;;;;;;;;;;9.40;99.30;;;;;;5088917;28;20736;-75
2023/03/09 09:50:04;;;;;;;;;;;9.40;99.50;;;;;;5091403;28;20064;-77
2023/03/09 09:52:35;;;;;;;;;;;9.50;99.90;;;;;;5094317;28;19931;-77
2023/03/09 09:55:07;;;;;;;;;;;9.50;99.70;;;;;;5092866;27;19939;-76
2023/03/09 09:57:38;;;;;;;;;;;9.50;99.80;;;;;;5092599;28;20317;-78
2023/03/09 10:00:07;;;;;;;;;;;9.50;99.80;;;;;;5093706;27;20395;-77
2023/03/09 10:02:39;;;;;;;;;;;9.50;99.80;;;;;;5089984;27;19939;-77
2023/03/09 10:05:11;;;;;;;;;;;9.50;99.80;;;;;;5094767;28;19934;-77
2023/03/09 10:07:38;;;;;;;;;;;9.50;99.80;;;;;;5092340;28;19932;-77
2023/03/09 10:10:11;;;;;;;;;;;9.50;99.80;;;;;;5095190;28;20288;-77
2023/03/09 10:12:39;;;;;;;;;;;9.60;99.80;;;;;;5090073;28;19932;-77
2023/03/09 10:15:08;;;;;;;;;;;9.50;99.80;;;;;;5087751;28;20008;-77
2023/03/09 10:17:38;;;;;;;;;;;9.60;99.80;;;;;;5088781;28;19932;-77
2023/03/09 10:20:11;;;;;;;;;;;9.60;99.80;;;;;;5092341;27;19928;-77
2023/03/09 10:22:39;;;;;;;;;;;9.60;99.90;;;;;;5093550;28;19932;-77
2023/03/09 10:25:11;;;;;;;;;;;9.70;99.90;;;;;;5097354;27;20008;-77
2023/03/09 10:27:41;;;;;;;;;;;9.70;99.90;;;;;;5092797;28;19971;-77
2023/03/09 10:30:16;;;;;;;;;;;9.70;99.90;;;;;;5089811;28;19928;-77
2023/03/09 10:32:47;;;;;;;;;;;9.70;99.90;;;;;;5096377;27;20031;-78
2023/03/09 10:35:20;;;;;;;;;;;9.80;99.90;;;;;;5095146;28;19928;-77
2023/03/09 10:37:48;;;;;;;;;;;9.90;99.80;;;;;;5089591;28;19928;-78
2023/03/09 10:40:18;;;;;;;;;;;9.90;99.70;;;;;;5090102;27;19934;-75
2023/03/09 10:42:45;;;;;;;;;;;10.00;99.80;;;;;;5093151;28;19928;-76
2023/03/09 10:45:18;;;;;;;;;;;10.00;99.90;;;;;;5092609;27;19942;-76
2023/03/09 10:47:59;;;;;;;;;;;10.00;99.90;;;;;;5089778;28;19932;-76
2023/03/09 10:50:27;;;;;;;;;;;10.00;99.90;;;;;;5089430;28;19986;-77
2023/03/09 10:52:55;;;;;;;;;;;10.00;99.90;;;;;;5092176;28;19940;-76
2023/03/09 10:55:31;;;;;;;;;;;10.00;99.90;;;;;;5088921;27;20402;-76
2023/03/09 10:57:58;;;;;;;;;;;10.00;99.90;;;;;;5090995;28;19935;-77
2023/03/09 11:00:26;;;;;;;;;;;10.00;99.90;;;;;;5084916;28;20378;-76
2023/03/09 11:02:53;;;;;;;;;;;10.00;99.90;;;;;;5084286;28;20055;-76
2023/03/09 11:05:20;;;;;;;;;;;10.00;99.90;;;;;;5086443;28;20016;-77
2023/03/09 11:07:50;;;;;;;;;;;10.00;99.90;;;;;;5091775;27;19935;-77
2023/03/09 11:10:35;;;;;;;;;;;10.00;99.90;;;;;;5086027;28;19934;-77
2023/03/09 11:13:03;;;;;;;;;;;10.10;99.90;;;;;;5088741;28;19928;-76
2023/03/09 11:15:31;;;;;;;;;;;10.00;99.90;;;;;;5086086;28;19974;-77
2023/03/09 11:17:58;;;;;;;;;;;10.10;99.90;;;;;;5090909;28;19924;-76
2023/03/09 11:20:28;;;;;;;;;;;10.10;99.90;;;;;;5084972;28;20667;-79
2023/03/09 11:23:03;;;;;;;;;;;10.20;99.90;;;;;;5086916;28;19928;-76
2023/03/09 11:25:39;;;;;;;;;;;10.20;99.90;;;;;;5085820;28;20283;-76
2023/03/09 11:28:11;;;;;;;;;;;10.20;99.90;;;;;;5088170;28;19937;-79
2023/03/09 11:30:39;;;;;;;;;;;10.30;99.90;;;;;;5086151;27;19939;-78
2023/03/09 11:33:09;;;;;;;;;;;10.30;99.90;;;;;;5090189;28;20720;-80
2023/03/09 11:35:35;;;;;;;;;;;10.40;99.90;;;;;;5084400;28;19935;-77
2023/03/09 11:38:05;;;;;;;;;;;10.40;99.90;;;;;;5078136;28;19934;-78
2023/03/09 11:40:33;;;;;;;;;;;10.50;99.60;;;;;;5087252;28;19935;-79
2023/03/09 11:43:04;;;;;;;;;;;10.40;99.50;;;;;;5077256;28;20052;-78
2023/03/09 11:45:33;;;;;;;;;;;10.40;99.40;;;;;;5080942;27;19957;-79
2023/03/09 11:48:01;;;;;;;;;;;10.40;99.40;;;;;;5083299;28;20453;-76
2023/03/09 11:50:30;;;;;;;;;;;10.40;99.40;;;;;;5083836;28;19943;-76
2023/03/09 11:52:58;;;;;;;;;;;10.30;99.30;;;;;;5084045;27;19961;-78
2023/03/09 11:55:27;;;;;;;;;;;10.30;99.30;;;;;;5086843;28;19930;-79
2023/03/09 11:57:57;;;;;;;;;;;10.30;99.40;;;;;;5082371;28;19985;-79
2023/03/09 12:00:24;;;;;;;;;;;10.30;99.40;;;;;;5081547;28;20399;-79
2023/03/09 12:02:57;;;;;;;;;;;10.30;99.40;;;;;;5087115;28;19928;-80
2023/03/09 12:05:25;;;;;;;;;;;10.30;99.40;;;;;;5083017;28;21724;-80
2023/03/09 12:07:54;;;;;;;;;;;10.30;99.30;;;;;;5087098;28;19981;-80
2023/03/09 12:10:25;;;;;;;;;;;10.40;99.40;;;;;;5092110;28;19928;-80
2023/03/09 12:12:55;;;;;;;;;;;10.40;99.30;;;;;;5097522;28;19935;-80
2023/03/09 12:15:33;;;;;;;;;;;10.40;99.30;;;;;;5090099;28;20047;-79
2023/03/09 12:18:04;;;;;;;;;;;10.40;99.20;;;;;;5076660;28;20576;-78
2023/03/09 12:20:33;;;;;;;;;;;10.40;99.20;;;;;;5072737;28;19963;-81
2023/03/09 12:22:59;;;;;;;;;;;10.50;99.30;;;;;;5069119;28;19933;-80
2023/03/09 12:25:26;;;;;;;;;;;10.50;99.40;;;;;;5076748;28;20005;-76
2023/03/09 12:27:54;;;;;;;;;;;10.40;99.50;;;;;;5073740;28;19939;-79
2023/03/09 12:30:23;;;;;;;;;;;10.50;99.60;;;;;;5073415;28;19929;-78
2023/03/09 12:32:49;;;;;;;;;;;10.50;99.50;;;;;;5095193;28;19935;-79
2023/03/09 12:35:40;;;;;;;;;;;10.50;99.50;;;;;;5089131;28;19935;-79
2023/03/09 12:38:18;;;;;;;;;;;10.50;99.40;;;;;;5092339;28;19959;-79
2023/03/09 12:40:44;;;;;;;;;;;10.50;99.40;;;;;;5090547;28;19928;-80
2023/03/09 12:43:29;;;;;;;;;;;10.50;99.40;;;;;;5089384;28;19939;-79
2023/03/09 12:46:16;;;;;;;;;;;10.60;99.50;;;;;;5087961;28;19932;-79
2023/03/09 12:48:44;;;;;;;;;;;10.60;99.40;;;;;;5091669;28;19932;-80
2023/03/09 12:51:18;;;;;;;;;;;10.70;99.30;;;;;;5089002;28;20350;-79
2023/03/09 12:53:59;;;;;;;;;;;10.80;99.10;;;;;;5087513;28;19946;-79
2023/03/09 12:56:26;;;;;;;;;;;10.90;98.90;;;;;;5090758;28;19932;-79
2023/03/09 12:58:53;;;;;;;;;;;11.00;98.70;;;;;;5089611;28;20437;-76
2023/03/09 13:01:31;;;;;;;;;;;11.00;98.50;;;;;;5098284;28;19924;-79
2023/03/09 13:04:12;;;;;;;;;;;11.00;98.40;;;;;;5095119;28;19928;-80
2023/03/09 13:06:39;;;;;;;;;;;11.10;98.20;;;;;;5094183;28;19939;-79
2023/03/09 13:09:17;;;;;;;;;;;11.10;98.30;;;;;;5102102;27;19927;-79
2023/03/09 13:11:44;;;;;;;;;;;11.10;97.90;;;;;;5093194;28;19931;-79
2023/03/09 13:14:12;;;;;;;;;;;11.10;97.90;;;;;;5096932;28;20412;-80
2023/03/09 13:16:47;;;;;;;;;;;11.10;97.80;;;;;;5095479;27;19980;-80
2023/03/09 13:19:30;;;;;;;;;;;11.10;97.70;;;;;;5096937;28;19932;-80
2023/03/09 13:22:15;;;;;;;;;;;11.20;97.70;;;;;;5098839;28;19980;-80
2023/03/09 13:24:43;;;;;;;;;;;11.10;97.60;;;;;;5095297;28;20663;-79
2023/03/09 13:27:12;;;;;;;;;;;11.10;97.40;;;;;;5098538;27;19927;-80
2023/03/09 13:29:40;;;;;;;;;;;11.10;97.50;;;;;;5093381;28;19928;-79
2023/03/09 13:32:15;;;;;;;;;;;11.10;97.50;;;;;;5095599;28;19965;-81
2023/03/09 13:34:45;;;;;;;;;;;11.10;97.60;;;;;;5094744;28;20275;-80
2023/03/09 13:37:14;;;;;;;;;;;11.10;97.60;;;;;;5093539;28;20001;-79
2023/03/09 13:39:55;;;;;;;;;;;11.10;97.60;;;;;;5091438;27;19928;-80
2023/03/09 13:42:24;;;;;;;;;;;11.10;97.60;;;;;;5093764;28;19936;-79
2023/03/09 13:44:53;;;;;;;;;;;11.10;97.50;;;;;;5091658;28;19935;-79
2023/03/09 13:47:22;;;;;;;;;;;11.10;97.40;;;;;;5094205;28;19927;-80
2023/03/09 13:49:49;;;;;;;;;;;11.20;97.30;;;;;;5091714;27;19980;-80
2023/03/09 13:52:18;;;;;;;;;;;11.20;97.30;;;;;;5097975;28;19939;-79
2023/03/09 13:54:48;;;;;;;;;;;11.20;97.20;;;;;;5095535;28;19932;-79
2023/03/09 13:57:15;;;;;;;;;;;11.20;97.10;;;;;;5098171;28;20215;-80
2023/03/09 13:59:50;;;;;;;;;;;11.20;97.10;;;;;;5093891;28;20617;-80
2023/03/09 14:02:17;;;;;;;;;;;11.30;97.10;;;;;;5093921;28;19934;-79
2023/03/09 14:04:44;;;;;;;;;;;11.30;97.10;;;;;;5092120;28;19972;-79
2023/03/09 14:07:13;;;;;;;;;;;11.30;97.20;;;;;;5092572;28;20299;-79
2023/03/09 14:09:39;;;;;;;;;;;11.20;97.20;;;;;;5091822;27;19939;-79
2023/03/09 14:12:06;;;;;;;;;;;11.20;97.20;;;;;;5093791;28;19928;-80
2023/03/09 14:14:34;;;;;;;;;;;11.20;97.30;;;;;;5089954;28;19996;-78
2023/03/09 14:17:02;;;;;;;;;;;11.30;97.40;;;;;;5090219;28;19932;-78
2023/03/09 14:19:30;;;;;;;;;;;11.30;97.50;;;;;;5096343;27;19927;-80
2023/03/09 14:21:57;;;;;;;;;;;11.30;97.50;;;;;;5101690;28;19973;-80
2023/03/09 14:24:25;;;;;;;;;;;11.30;97.60;;;;;;5102948;28;19980;-80
2023/03/09 14:26:51;;;;;;;;;;;11.20;97.60;;;;;;5096852;28;19923;-80
2023/03/09 14:29:23;;;;;;;;;;;11.30;97.60;;;;;;5107257;27;19950;-81
2023/03/09 14:32:09;;;;;;;;;;;11.30;97.60;;;;;;5097062;28;19928;-82